sensor_id;sensor_type;location;lat;lon;timestamp;pressure;altitude;pressure_sealevel;temperature;humidity
69411;BME280;56604;48.652;9.194;2023-02-16T00:01:50;97233.34;;;4.55;67.62
69411;BME280;56604;48.652;9.194;2023-02-16T00:04:21;97235.50;;;4.51;66.66
69411;BME280;56604;48.652;9.194;2023-02-16T00:06:47;97238.53;;;4.55;67.44
69411;BME280;56604;48.652;9.194;2023-02-16T00:09:13;97233.44;;;4.46;66.42
69411;BME280;56604;48.652;9.194;2023-02-16T00:11:38;97231.69;;;4.47;66.96
69411;BME280;56604;48.652;9.194;2023-02-16T00:14:23;97231.22;;;4.43;66.67
69411;BME280;56604;48.652;9.194;2023-02-16T00:16:54;97226.38;;;4.40;66.94
69411;BME280;56604;48.652;9.194;2023-02-16T00:19:33;97236.38;;;4.37;66.64
69411;BME280;56604;48.652;9.194;2023-02-16T00:22:00;97226.69;;;4.31;67.35
69411;BME280;56604;48.652;9.194;2023-02-16T00:24:27;97227.88;;;4.28;67.42
69411;BME280;56604;48.652;9.194;2023-02-16T00:26:52;97220.59;;;4.23;67.03
69411;BME280;56604;48.652;9.194;2023-02-16T00:29:22;97221.06;;;4.27;67.16
69411;BME280;56604;48.652;9.194;2023-02-16T00:31:48;97216.84;;;4.26;67.02
69411;BME280;56604;48.652;9.194;2023-02-16T00:34:28;97210.28;;;4.30;67.08
69411;BME280;56604;48.652;9.194;2023-02-16T00:36:55;97213.31;;;4.34;65.63
69411;BME280;56604;48.652;9.194;2023-02-16T00:39:20;97216.91;;;4.33;66.21
69411;BME280;56604;48.652;9.194;2023-02-16T00:41:46;97215.28;;;4.32;65.76
69411;BME280;56604;48.652;9.194;2023-02-16T00:44:18;97225.38;;;4.20;66.36
69411;BME280;56604;48.652;9.194;2023-02-16T00:46:45;97230.78;;;4.03;66.34
69411;BME280;56604;48.652;9.194;2023-02-16T00:49:19;97234.41;;;4.02;67.45
69411;BME280;56604;48.652;9.194;2023-02-16T00:51:45;97223.66;;;3.91;67.36
69411;BME280;56604;48.652;9.194;2023-02-16T00:54:10;97219.78;;;3.87;68.16
69411;BME280;56604;48.652;9.194;2023-02-16T00:56:36;97222.22;;;3.88;67.95
69411;BME280;56604;48.652;9.194;2023-02-16T00:59:04;97230.91;;;3.80;68.65
69411;BME280;56604;48.652;9.194;2023-02-16T01:01:31;97218.63;;;3.89;67.74
69411;BME280;56604;48.652;9.194;2023-02-16T01:04:00;97225.19;;;3.85;67.92
69411;BME280;56604;48.652;9.194;2023-02-16T01:06:27;97226.16;;;3.84;68.30
69411;BME280;56604;48.652;9.194;2023-02-16T01:09:18;97228.31;;;3.80;68.65
69411;BME280;56604;48.652;9.194;2023-02-16T01:12:04;97220.44;;;3.74;68.26
69411;BME280;56604;48.652;9.194;2023-02-16T01:14:33;97232.09;;;3.78;68.64
69411;BME280;56604;48.652;9.194;2023-02-16T01:16:59;97226.88;;;3.78;67.79
69411;BME280;56604;48.652;9.194;2023-02-16T01:19:24;97220.81;;;3.71;68.00
69411;BME280;56604;48.652;9.194;2023-02-16T01:21:50;97223.69;;;3.76;68.27
69411;BME280;56604;48.652;9.194;2023-02-16T01:24:15;97228.34;;;3.66;68.48
69411;BME280;56604;48.652;9.194;2023-02-16T01:26:43;97224.13;;;3.65;68.13
69411;BME280;56604;48.652;9.194;2023-02-16T01:29:14;97222.88;;;3.60;69.03
69411;BME280;56604;48.652;9.194;2023-02-16T01:31:40;97228.16;;;3.52;68.13
69411;BME280;56604;48.652;9.194;2023-02-16T01:34:05;97228.53;;;3.49;68.40
69411;BME280;56604;48.652;9.194;2023-02-16T01:36:35;97235.06;;;3.45;69.13
69411;BME280;56604;48.652;9.194;2023-02-16T01:39:02;97224.84;;;3.44;68.97
69411;BME280;56604;48.652;9.194;2023-02-16T01:44:24;97225.56;;;3.37;68.72
69411;BME280;56604;48.652;9.194;2023-02-16T01:49:42;97209.81;;;3.39;69.07
69411;BME280;56604;48.652;9.194;2023-02-16T01:52:32;97212.03;;;3.42;69.29
69411;BME280;56604;48.652;9.194;2023-02-16T01:57:41;97213.66;;;3.43;69.31
69411;BME280;56604;48.652;9.194;2023-02-16T02:02:49;97218.13;;;3.49;69.28
69411;BME280;56604;48.652;9.194;2023-02-16T02:05:28;97214.91;;;3.47;68.99
69411;BME280;56604;48.652;9.194;2023-02-16T02:08:05;97210.69;;;3.46;68.58
69411;BME280;56604;48.652;9.194;2023-02-16T02:13:08;97199.03;;;3.42;69.34
69411;BME280;56604;48.652;9.194;2023-02-16T02:15:35;97191.53;;;3.47;69.69
69411;BME280;56604;48.652;9.194;2023-02-16T02:18:01;97191.16;;;3.50;69.26
69411;BME280;56604;48.652;9.194;2023-02-16T02:20:43;97191.59;;;3.54;69.06
69411;BME280;56604;48.652;9.194;2023-02-16T02:23:36;97186.94;;;3.49;68.79
69411;BME280;56604;48.652;9.194;2023-02-16T02:26:15;97187.28;;;3.46;69.09
69411;BME280;56604;48.652;9.194;2023-02-16T02:37:43;97179.88;;;3.28;69.17
69411;BME280;56604;48.652;9.194;2023-02-16T02:40:20;97185.13;;;3.35;69.42
69411;BME280;56604;48.652;9.194;2023-02-16T02:45:22;97185.88;;;3.29;69.49
69411;BME280;56604;48.652;9.194;2023-02-16T02:47:48;97183.25;;;3.29;69.93
69411;BME280;56604;48.652;9.194;2023-02-16T02:50:39;97187.47;;;3.30;70.01
69411;BME280;56604;48.652;9.194;2023-02-16T02:53:11;97176.09;;;3.31;70.40
69411;BME280;56604;48.652;9.194;2023-02-16T02:55:42;97177.72;;;3.32;70.22
69411;BME280;56604;48.652;9.194;2023-02-16T02:58:32;97172.34;;;3.33;69.41
69411;BME280;56604;48.652;9.194;2023-02-16T03:01:17;97177.06;;;3.30;70.12
69411;BME280;56604;48.652;9.194;2023-02-16T03:03:50;97177.72;;;3.32;70.15
69411;BME280;56604;48.652;9.194;2023-02-16T03:06:25;97176.91;;;3.31;70.03
69411;BME280;56604;48.652;9.194;2023-02-16T03:08:58;97175.03;;;3.40;70.01
69411;BME280;56604;48.652;9.194;2023-02-16T03:11:26;97176.16;;;3.52;69.80
69411;BME280;56604;48.652;9.194;2023-02-16T03:14:18;97165.78;;;3.52;69.47
69411;BME280;56604;48.652;9.194;2023-02-16T03:16:53;97159.78;;;3.52;70.08
69411;BME280;56604;48.652;9.194;2023-02-16T03:19:41;97164.91;;;3.45;70.01
69411;BME280;56604;48.652;9.194;2023-02-16T03:22:26;97170.19;;;3.37;70.55
69411;BME280;56604;48.652;9.194;2023-02-16T03:25:10;97169.91;;;3.32;70.08
69411;BME280;56604;48.652;9.194;2023-02-16T03:27:55;97174.66;;;3.28;70.60
69411;BME280;56604;48.652;9.194;2023-02-16T03:30:41;97177.44;;;3.27;69.97
69411;BME280;56604;48.652;9.194;2023-02-16T03:33:09;97178.25;;;3.27;70.86
69411;BME280;56604;48.652;9.194;2023-02-16T03:35:35;97179.06;;;3.28;70.58
69411;BME280;56604;48.652;9.194;2023-02-16T03:38:01;97171.00;;;3.23;70.49
69411;BME280;56604;48.652;9.194;2023-02-16T03:40:27;97179.06;;;3.28;71.38
69411;BME280;56604;48.652;9.194;2023-02-16T03:42:55;97171.44;;;3.26;71.30
69411;BME280;56604;48.652;9.194;2023-02-16T03:45:21;97183.63;;;3.26;70.63
69411;BME280;56604;48.652;9.194;2023-02-16T03:47:47;97176.81;;;3.25;71.06
69411;BME280;56604;48.652;9.194;2023-02-16T03:50:12;97181.47;;;3.29;70.16
69411;BME280;56604;48.652;9.194;2023-02-16T03:52:38;97182.03;;;3.25;70.82
69411;BME280;56604;48.652;9.194;2023-02-16T03:55:04;97179.22;;;3.26;71.15
69411;BME280;56604;48.652;9.194;2023-02-16T03:57:29;97180.31;;;3.32;71.23
69411;BME280;56604;48.652;9.194;2023-02-16T03:59:54;97179.22;;;3.41;70.16
69411;BME280;56604;48.652;9.194;2023-02-16T04:02:20;97184.06;;;3.44;70.81
69411;BME280;56604;48.652;9.194;2023-02-16T04:04:46;97189.88;;;3.46;70.58
69411;BME280;56604;48.652;9.194;2023-02-16T04:07:11;97186.94;;;3.49;70.48
69411;BME280;56604;48.652;9.194;2023-02-16T04:09:37;97185.50;;;3.47;70.87
69411;BME280;56604;48.652;9.194;2023-02-16T04:12:02;97194.72;;;3.49;70.47
69411;BME280;56604;48.652;9.194;2023-02-16T04:14:46;97189.06;;;3.60;69.91
69411;BME280;56604;48.652;9.194;2023-02-16T04:17:12;97194.38;;;3.67;70.09
69411;BME280;56604;48.652;9.194;2023-02-16T04:19:37;97203.56;;;3.70;69.73
69411;BME280;56604;48.652;9.194;2023-02-16T04:22:02;97199.00;;;3.72;70.34
69411;BME280;56604;48.652;9.194;2023-02-16T04:24:28;97198.00;;;3.73;69.75
69411;BME280;56604;48.652;9.194;2023-02-16T04:26:53;97205.13;;;3.79;70.29
69411;BME280;56604;48.652;9.194;2023-02-16T04:29:18;97200.16;;;3.84;70.03
69411;BME280;56604;48.652;9.194;2023-02-16T04:31:44;97201.78;;;3.85;69.35
69411;BME280;56604;48.652;9.194;2023-02-16T04:34:09;97190.66;;;3.91;69.64
69411;BME280;56604;48.652;9.194;2023-02-16T04:36:34;97193.31;;;3.98;69.33
69411;BME280;56604;48.652;9.194;2023-02-16T04:39:00;97199.56;;;4.03;69.32
69411;BME280;56604;48.652;9.194;2023-02-16T04:41:25;97202.81;;;4.05;68.53
69411;BME280;56604;48.652;9.194;2023-02-16T04:43:51;97192.84;;;4.09;69.18
69411;BME280;56604;48.652;9.194;2023-02-16T04:46:16;97198.13;;;4.16;68.39
69411;BME280;56604;48.652;9.194;2023-02-16T04:48:43;97210.13;;;4.17;69.03
69411;BME280;56604;48.652;9.194;2023-02-16T04:51:08;97203.69;;;4.13;69.20
69411;BME280;56604;48.652;9.194;2023-02-16T04:53:34;97200.09;;;4.14;68.96
69411;BME280;56604;48.652;9.194;2023-02-16T04:55:59;97201.22;;;4.04;68.79
69411;BME280;56604;48.652;9.194;2023-02-16T04:58:24;97203.13;;;3.96;68.90
69411;BME280;56604;48.652;9.194;2023-02-16T05:00:50;97211.09;;;3.94;70.12
69411;BME280;56604;48.652;9.194;2023-02-16T05:03:15;97200.50;;;3.81;69.54
69411;BME280;56604;48.652;9.194;2023-02-16T05:05:40;97195.94;;;3.83;70.55
69411;BME280;56604;48.652;9.194;2023-02-16T05:08:06;97187.88;;;3.78;70.49
69411;BME280;56604;48.652;9.194;2023-02-16T05:10:31;97184.91;;;3.81;69.80
69411;BME280;56604;48.652;9.194;2023-02-16T05:12:57;97191.75;;;3.82;70.31
69411;BME280;56604;48.652;9.194;2023-02-16T05:15:40;97195.78;;;3.85;69.90
69411;BME280;56604;48.652;9.194;2023-02-16T05:18:06;97196.56;;;3.85;69.80
69411;BME280;56604;48.652;9.194;2023-02-16T05:20:31;97200.97;;;3.85;70.32
69411;BME280;56604;48.652;9.194;2023-02-16T05:23:15;97195.69;;;3.78;69.68
69411;BME280;56604;48.652;9.194;2023-02-16T05:25:41;97198.00;;;3.73;70.64
69411;BME280;56604;48.652;9.194;2023-02-16T05:28:06;97209.25;;;3.73;70.92
69411;BME280;56604;48.652;9.194;2023-02-16T05:30:31;97207.72;;;3.64;71.07
69411;BME280;56604;48.652;9.194;2023-02-16T05:32:57;97209.88;;;3.60;70.79
69411;BME280;56604;48.652;9.194;2023-02-16T05:35:22;97214.28;;;3.60;71.00
69411;BME280;56604;48.652;9.194;2023-02-16T05:37:47;97216.06;;;3.59;70.79
69411;BME280;56604;48.652;9.194;2023-02-16T05:40:13;97217.03;;;3.58;71.02
69411;BME280;56604;48.652;9.194;2023-02-16T05:42:38;97215.06;;;3.60;71.01
69411;BME280;56604;48.652;9.194;2023-02-16T05:45:03;97207.09;;;3.62;71.05
69411;BME280;56604;48.652;9.194;2023-02-16T05:47:29;97216.22;;;3.58;71.15
69411;BME280;56604;48.652;9.194;2023-02-16T05:49:54;97214.19;;;3.53;71.31
69411;BME280;56604;48.652;9.194;2023-02-16T05:52:19;97216.59;;;3.55;71.78
69411;BME280;56604;48.652;9.194;2023-02-16T05:54:45;97224.59;;;3.53;71.92
69411;BME280;56604;48.652;9.194;2023-02-16T05:57:10;97217.03;;;3.58;70.89
69411;BME280;56604;48.652;9.194;2023-02-16T05:59:35;97211.84;;;3.58;71.28
69411;BME280;56604;48.652;9.194;2023-02-16T06:02:01;97215.88;;;3.61;71.47
69411;BME280;56604;48.652;9.194;2023-02-16T06:04:26;97215.75;;;3.84;74.08
69411;BME280;56604;48.652;9.194;2023-02-16T06:06:53;97213.88;;;3.93;72.67
69411;BME280;56604;48.652;9.194;2023-02-16T06:09:18;97216.34;;;4.16;72.32
69411;BME280;56604;48.652;9.194;2023-02-16T06:11:43;97222.78;;;4.84;71.20
69411;BME280;56604;48.652;9.194;2023-02-16T06:14:19;97230.84;;;4.25;69.32
69411;BME280;56604;48.652;9.194;2023-02-16T06:16:47;97226.59;;;4.02;70.22
69411;BME280;56604;48.652;9.194;2023-02-16T06:19:14;97231.03;;;3.87;70.28
69411;BME280;56604;48.652;9.194;2023-02-16T06:21:40;97239.88;;;3.78;70.97
69411;BME280;56604;48.652;9.194;2023-02-16T06:24:07;97235.41;;;3.72;70.80
69411;BME280;56604;48.652;9.194;2023-02-16T06:26:33;97245.53;;;3.67;71.62
69411;BME280;56604;48.652;9.194;2023-02-16T06:28:59;97245.47;;;3.60;71.28
69411;BME280;56604;48.652;9.194;2023-02-16T06:31:25;97252.53;;;3.51;71.18
69411;BME280;56604;48.652;9.194;2023-02-16T06:33:50;97251.63;;;3.44;72.41
69411;BME280;56604;48.652;9.194;2023-02-16T06:36:17;97259.19;;;3.39;72.23
69411;BME280;56604;48.652;9.194;2023-02-16T06:38:43;97256.94;;;3.36;72.88
69411;BME280;56604;48.652;9.194;2023-02-16T06:41:09;97258.25;;;3.32;72.34
69411;BME280;56604;48.652;9.194;2023-02-16T06:43:34;97257.09;;;3.34;73.27
69411;BME280;56604;48.652;9.194;2023-02-16T06:46:00;97259.88;;;3.33;72.48
69411;BME280;56604;48.652;9.194;2023-02-16T06:48:25;97259.06;;;3.32;72.99
69411;BME280;56604;48.652;9.194;2023-02-16T06:50:51;97255.94;;;3.37;72.88
69411;BME280;56604;48.652;9.194;2023-02-16T06:53:17;97254.06;;;3.46;72.27
69411;BME280;56604;48.652;9.194;2023-02-16T06:55:42;97252.63;;;3.58;72.04
69411;BME280;56604;48.652;9.194;2023-02-16T06:58:08;97247.19;;;3.68;71.60
69411;BME280;56604;48.652;9.194;2023-02-16T07:00:34;97246.38;;;3.67;71.06
69411;BME280;56604;48.652;9.194;2023-02-16T07:02:59;97252.63;;;3.73;71.38
69411;BME280;56604;48.652;9.194;2023-02-16T07:05:25;97259.72;;;3.79;71.56
69411;BME280;56604;48.652;9.194;2023-02-16T07:07:50;97263.28;;;3.78;71.18
69411;BME280;56604;48.652;9.194;2023-02-16T07:10:16;97260.09;;;3.76;70.71
69411;BME280;56604;48.652;9.194;2023-02-16T07:12:41;97263.84;;;3.88;71.26
69411;BME280;56604;48.652;9.194;2023-02-16T07:15:07;97265.91;;;4.29;69.76
69411;BME280;56604;48.652;9.194;2023-02-16T07:17:33;97263.22;;;4.80;67.65
69411;BME280;56604;48.652;9.194;2023-02-16T07:19:59;97258.34;;;5.20;66.82
69411;BME280;56604;48.652;9.194;2023-02-16T07:22:24;97259.22;;;5.62;64.76
69411;BME280;56604;48.652;9.194;2023-02-16T07:24:50;97259.28;;;6.03;63.92
69411;BME280;56604;48.652;9.194;2023-02-16T07:27:15;97246.94;;;6.45;62.19
69411;BME280;56604;48.652;9.194;2023-02-16T07:29:40;97248.22;;;6.69;60.87
69411;BME280;56604;48.652;9.194;2023-02-16T07:32:07;97246.59;;;7.08;60.13
69411;BME280;56604;48.652;9.194;2023-02-16T07:34:32;97247.78;;;7.39;58.55
69411;BME280;56604;48.652;9.194;2023-02-16T07:36:57;97253.97;;;7.71;58.41
69411;BME280;56604;48.652;9.194;2023-02-16T07:39:23;97253.66;;;8.13;56.75
69411;BME280;56604;48.652;9.194;2023-02-16T07:41:48;97257.03;;;8.65;55.30
69411;BME280;56604;48.652;9.194;2023-02-16T07:44:13;97250.97;;;8.71;55.44
69411;BME280;56604;48.652;9.194;2023-02-16T07:46:39;97253.56;;;9.03;53.71
69411;BME280;56604;48.652;9.194;2023-02-16T07:49:04;97259.38;;;9.30;53.25
69411;BME280;56604;48.652;9.194;2023-02-16T07:51:30;97265.94;;;9.64;52.40
69411;BME280;56604;48.652;9.194;2023-02-16T07:53:57;97262.00;;;9.91;51.28
69411;BME280;56604;48.652;9.194;2023-02-16T07:56:28;97260.34;;;9.97;51.17
69411;BME280;56604;48.652;9.194;2023-02-16T07:58:54;97266.22;;;10.48;49.68
69411;BME280;56604;48.652;9.194;2023-02-16T08:01:21;97255.16;;;10.88;48.96
69411;BME280;56604;48.652;9.194;2023-02-16T08:03:47;97256.31;;;11.15;48.70
69411;BME280;56604;48.652;9.194;2023-02-16T08:06:12;97272.16;;;11.39;46.77
69411;BME280;56604;48.652;9.194;2023-02-16T08:08:38;97272.94;;;11.75;46.31
69411;BME280;56604;48.652;9.194;2023-02-16T08:11:12;97275.13;;;11.78;45.79
69411;BME280;56604;48.652;9.194;2023-02-16T08:13:38;97274.91;;;11.56;46.22
69411;BME280;56604;48.652;9.194;2023-02-16T08:16:09;97274.91;;;11.67;46.18
69411;BME280;56604;48.652;9.194;2023-02-16T08:18:35;97282.94;;;11.96;44.98
69411;BME280;56604;48.652;9.194;2023-02-16T08:21:15;97276.78;;;12.59;43.65
69411;BME280;56604;48.652;9.194;2023-02-16T08:23:46;97274.78;;;12.95;43.31
69411;BME280;56604;48.652;9.194;2023-02-16T08:26:13;97284.03;;;13.26;42.18
69411;BME280;56604;48.652;9.194;2023-02-16T08:28:39;97287.13;;;13.40;42.85
69411;BME280;56604;48.652;9.194;2023-02-16T08:31:11;97287.94;;;13.24;42.32
69411;BME280;56604;48.652;9.194;2023-02-16T08:33:36;97293.97;;;13.36;42.35
69411;BME280;56604;48.652;9.194;2023-02-16T08:36:02;97291.00;;;12.87;42.33
69411;BME280;56604;48.652;9.194;2023-02-16T08:38:28;97291.56;;;12.89;42.57
69411;BME280;56604;48.652;9.194;2023-02-16T08:40:53;97277.97;;;12.97;42.45
69411;BME280;56604;48.652;9.194;2023-02-16T08:43:20;97281.44;;;13.15;42.50
69411;BME280;56604;48.652;9.194;2023-02-16T08:45:46;97283.03;;;13.16;42.36
69411;BME280;56604;48.652;9.194;2023-02-16T08:48:12;97282.78;;;13.29;41.77
69411;BME280;56604;48.652;9.194;2023-02-16T08:50:42;97282.47;;;12.40;43.15
69411;BME280;56604;48.652;9.194;2023-02-16T08:53:11;97288.47;;;12.64;43.26
69411;BME280;56604;48.652;9.194;2023-02-16T08:55:37;97277.84;;;13.21;42.46
69411;BME280;56604;48.652;9.194;2023-02-16T08:58:03;97279.34;;;13.00;42.26
69411;BME280;56604;48.652;9.194;2023-02-16T09:00:28;97282.53;;;12.56;42.63
69411;BME280;56604;48.652;9.194;2023-02-16T09:03:00;97284.00;;;13.10;42.48
69411;BME280;56604;48.652;9.194;2023-02-16T09:05:26;97283.19;;;12.23;43.56
69411;BME280;56604;48.652;9.194;2023-02-16T09:07:55;97282.13;;;12.93;42.63
69411;BME280;56604;48.652;9.194;2023-02-16T09:10:21;97280.44;;;13.49;40.72
69411;BME280;56604;48.652;9.194;2023-02-16T09:12:48;97279.41;;;13.89;40.22
69411;BME280;56604;48.652;9.194;2023-02-16T09:15:15;97283.28;;;14.48;39.14
69411;BME280;56604;48.652;9.194;2023-02-16T09:17:41;97283.69;;;14.12;38.96
69411;BME280;56604;48.652;9.194;2023-02-16T09:20:07;97276.63;;;14.45;38.93
69411;BME280;56604;48.652;9.194;2023-02-16T09:22:33;97282.44;;;14.20;38.05
69411;BME280;56604;48.652;9.194;2023-02-16T09:24:58;97275.78;;;13.57;39.48
69411;BME280;56604;48.652;9.194;2023-02-16T09:27:24;97277.91;;;14.87;37.52
69411;BME280;56604;48.652;9.194;2023-02-16T09:29:50;97271.25;;;15.16;37.13
69411;BME280;56604;48.652;9.194;2023-02-16T09:32:15;97274.28;;;14.98;36.83
69411;BME280;56604;48.652;9.194;2023-02-16T09:34:41;97277.81;;;15.41;35.22
69411;BME280;56604;48.652;9.194;2023-02-16T09:37:09;97277.03;;;15.40;35.48
69411;BME280;56604;48.652;9.194;2023-02-16T09:39:34;97275.28;;;15.56;35.65
69411;BME280;56604;48.652;9.194;2023-02-16T09:42:14;97290.25;;;15.08;35.76
69411;BME280;56604;48.652;9.194;2023-02-16T09:44:54;97280.97;;;15.38;35.40
69411;BME280;56604;48.652;9.194;2023-02-16T09:47:29;97277.22;;;15.34;36.12
69411;BME280;56604;48.652;9.194;2023-02-16T09:49:58;97285.88;;;15.56;35.02
69411;BME280;56604;48.652;9.194;2023-02-16T09:52:36;97276.94;;;14.98;36.57
69411;BME280;56604;48.652;9.194;2023-02-16T09:58:19;97271.00;;;14.85;37.38
69411;BME280;56604;48.652;9.194;2023-02-16T10:03:46;97280.00;;;14.84;37.67
69411;BME280;56604;48.652;9.194;2023-02-16T10:06:33;97276.16;;;14.70;36.58
69411;BME280;56604;48.652;9.194;2023-02-16T10:09:07;97278.91;;;14.80;36.11
69411;BME280;56604;48.652;9.194;2023-02-16T10:11:41;97279.69;;;14.81;36.75
69411;BME280;56604;48.652;9.194;2023-02-16T10:20:13;97273.56;;;14.75;37.22
69411;BME280;56604;48.652;9.194;2023-02-16T10:28:25;97270.53;;;14.94;37.17
69411;BME280;56604;48.652;9.194;2023-02-16T10:30:59;97269.34;;;14.30;37.12
69411;BME280;56604;48.652;9.194;2023-02-16T10:36:57;97273.00;;;15.33;36.48
69411;BME280;56604;48.652;9.194;2023-02-16T10:42:41;97257.78;;;15.55;35.69
69411;BME280;56604;48.652;9.194;2023-02-16T10:45:25;97259.66;;;15.22;35.57
69411;BME280;56604;48.652;9.194;2023-02-16T10:47:52;97260.13;;;14.55;37.09
69411;BME280;56604;48.652;9.194;2023-02-16T10:50:32;97261.50;;;15.22;36.40
69411;BME280;56604;48.652;9.194;2023-02-16T10:53:05;97252.06;;;15.68;36.09
69411;BME280;56604;48.652;9.194;2023-02-16T10:55:33;97256.53;;;15.25;36.16
69411;BME280;56604;48.652;9.194;2023-02-16T10:58:00;97245.50;;;15.44;35.89
69411;BME280;56604;48.652;9.194;2023-02-16T11:00:37;97247.78;;;15.67;36.33
69411;BME280;56604;48.652;9.194;2023-02-16T11:03:09;97249.63;;;16.14;35.00
69411;BME280;56604;48.652;9.194;2023-02-16T11:05:37;97234.84;;;16.29;35.22
69411;BME280;56604;48.652;9.194;2023-02-16T11:08:04;97236.94;;;16.27;35.59
69411;BME280;56604;48.652;9.194;2023-02-16T11:10:40;97237.84;;;16.63;34.40
69411;BME280;56604;48.652;9.194;2023-02-16T11:13:19;97239.09;;;16.35;34.08
69411;BME280;56604;48.652;9.194;2023-02-16T11:15:51;97233.22;;;16.28;35.50
69411;BME280;56604;48.652;9.194;2023-02-16T11:18:28;97238.47;;;16.12;35.65
69411;BME280;56604;48.652;9.194;2023-02-16T11:20:56;97228.84;;;15.91;35.30
69411;BME280;56604;48.652;9.194;2023-02-16T11:23:25;97238.81;;;14.99;36.91
69411;BME280;56604;48.652;9.194;2023-02-16T11:28:48;97222.72;;;15.43;36.63
69411;BME280;56604;48.652;9.194;2023-02-16T11:31:18;97217.94;;;15.45;37.07
69411;BME280;56604;48.652;9.194;2023-02-16T11:34:01;97218.00;;;15.50;36.85
69411;BME280;56604;48.652;9.194;2023-02-16T11:36:43;97223.22;;;15.02;37.02
69411;BME280;56604;48.652;9.194;2023-02-16T11:39:22;97227.25;;;15.10;37.11
69411;BME280;56604;48.652;9.194;2023-02-16T11:44:28;97217.13;;;15.02;37.54
69411;BME280;56604;48.652;9.194;2023-02-16T11:46:57;97215.78;;;14.45;38.39
69411;BME280;56604;48.652;9.194;2023-02-16T11:49:36;97209.72;;;15.04;38.37
69411;BME280;56604;48.652;9.194;2023-02-16T11:54:51;97206.25;;;14.66;38.20
69411;BME280;56604;48.652;9.194;2023-02-16T11:57:26;97197.97;;;14.62;38.79
69411;BME280;56604;48.652;9.194;2023-02-16T11:59:55;97194.00;;;14.11;39.44
69411;BME280;56604;48.652;9.194;2023-02-16T12:05:25;97190.03;;;13.86;40.02
69411;BME280;56604;48.652;9.194;2023-02-16T12:10:50;97182.53;;;13.78;40.93
69411;BME280;56604;48.652;9.194;2023-02-16T12:27:14;97180.91;;;13.77;42.49
69411;BME280;56604;48.652;9.194;2023-02-16T12:32:39;97170.66;;;13.59;42.10
69411;BME280;56604;48.652;9.194;2023-02-16T12:37:59;97158.38;;;13.69;41.63
69411;BME280;56604;48.652;9.194;2023-02-16T12:40:49;97161.59;;;13.55;42.30
69411;BME280;56604;48.652;9.194;2023-02-16T12:46:00;97156.63;;;13.80;42.17
69411;BME280;56604;48.652;9.194;2023-02-16T12:48:49;97145.59;;;13.61;42.77
69411;BME280;56604;48.652;9.194;2023-02-16T12:51:21;97151.41;;;13.85;41.31
69411;BME280;56604;48.652;9.194;2023-02-16T12:54:08;97147.66;;;14.03;41.65
69411;BME280;56604;48.652;9.194;2023-02-16T12:56:42;97141.16;;;13.89;41.71
69411;BME280;56604;48.652;9.194;2023-02-16T12:59:25;97135.63;;;13.90;40.88
69411;BME280;56604;48.652;9.194;2023-02-16T13:01:55;97125.75;;;14.08;41.66
69411;BME280;56604;48.652;9.194;2023-02-16T13:04:36;97125.81;;;14.13;41.54
69411;BME280;56604;48.652;9.194;2023-02-16T13:07:05;97117.75;;;14.03;40.58
69411;BME280;56604;48.652;9.194;2023-02-16T13:09:50;97120.66;;;14.01;41.29
69411;BME280;56604;48.652;9.194;2023-02-16T13:15:10;97108.53;;;13.78;42.61
69411;BME280;56604;48.652;9.194;2023-02-16T13:17:59;97102.16;;;14.01;42.50
69411;BME280;56604;48.652;9.194;2023-02-16T13:20:26;97107.69;;;14.00;41.84
69411;BME280;56604;48.652;9.194;2023-02-16T13:23:29;97106.53;;;13.90;41.82
69411;BME280;56604;48.652;9.194;2023-02-16T13:26:18;97102.13;;;13.74;42.06
69411;BME280;56604;48.652;9.194;2023-02-16T13:37:19;97099.91;;;13.66;42.05
69411;BME280;56604;48.652;9.194;2023-02-16T13:45:27;97096.09;;;14.06;41.80
69411;BME280;56604;48.652;9.194;2023-02-16T13:47:55;97100.44;;;14.17;42.13
69411;BME280;56604;48.652;9.194;2023-02-16T13:52:48;97094.88;;;14.13;41.09
69411;BME280;56604;48.652;9.194;2023-02-16T13:55:29;97094.75;;;14.30;40.47
69411;BME280;56604;48.652;9.194;2023-02-16T13:58:00;97089.63;;;14.51;41.24
69411;BME280;56604;48.652;9.194;2023-02-16T14:00:39;97092.06;;;14.52;40.72
69411;BME280;56604;48.652;9.194;2023-02-16T14:05:45;97086.69;;;14.47;41.32
69411;BME280;56604;48.652;9.194;2023-02-16T14:08:28;97094.50;;;14.59;40.89
69411;BME280;56604;48.652;9.194;2023-02-16T14:10:54;97102.75;;;14.35;41.49
69411;BME280;56604;48.652;9.194;2023-02-16T14:21:41;97094.25;;;14.33;41.31
69411;BME280;56604;48.652;9.194;2023-02-16T14:24:23;97100.44;;;14.17;41.64
69411;BME280;56604;48.652;9.194;2023-02-16T14:27:01;97111.13;;;14.00;42.12
69411;BME280;56604;48.652;9.194;2023-02-16T14:29:52;97111.44;;;14.04;41.78
69411;BME280;56604;48.652;9.194;2023-02-16T14:32:25;97107.09;;;13.92;41.45
69411;BME280;56604;48.652;9.194;2023-02-16T14:35:02;97115.31;;;13.96;41.04
69411;BME280;56604;48.652;9.194;2023-02-16T14:37:40;97115.84;;;13.71;41.86
69411;BME280;56604;48.652;9.194;2023-02-16T14:40:51;97124.88;;;13.75;41.97
69411;BME280;56604;48.652;9.194;2023-02-16T14:43:01;97113.59;;;13.58;42.03
69411;BME280;56604;48.652;9.194;2023-02-16T14:45:40;97127.66;;;13.63;41.42
69411;BME280;56604;48.652;9.194;2023-02-16T14:54:15;97128.66;;;13.40;41.42
69411;BME280;56604;48.652;9.194;2023-02-16T14:56:51;97127.38;;;13.43;40.99
69411;BME280;56604;48.652;9.194;2023-02-16T14:59:41;97132.66;;;13.43;41.54
69411;BME280;56604;48.652;9.194;2023-02-16T15:02:25;97123.38;;;13.40;40.90
69411;BME280;56604;48.652;9.194;2023-02-16T15:04:51;97131.56;;;13.39;41.32
69411;BME280;56604;48.652;9.194;2023-02-16T15:07:17;97130.78;;;13.38;41.19
69411;BME280;56604;48.652;9.194;2023-02-16T15:09:43;97130.78;;;13.38;41.74
69411;BME280;56604;48.652;9.194;2023-02-16T15:12:13;97126.47;;;13.32;41.42
69411;BME280;56604;48.652;9.194;2023-02-16T15:14:54;97126.78;;;13.19;41.53
69411;BME280;56604;48.652;9.194;2023-02-16T15:17:33;97121.00;;;13.22;42.17
69411;BME280;56604;48.652;9.194;2023-02-16T15:22:33;97126.13;;;13.12;42.18
69411;BME280;56604;48.652;9.194;2023-02-16T15:25:06;97133.19;;;13.06;42.82
69411;BME280;56604;48.652;9.194;2023-02-16T15:27:32;97131.41;;;13.12;42.66
69411;BME280;56604;48.652;9.194;2023-02-16T15:30:21;97128.97;;;13.05;42.90